sensor_id;sensor_type;location;lat;lon;timestamp;P1;durP1;ratioP1;P2;durP2;ratioP2
51491;SDS011;37569;50.548;8.778;2023-05-07T00:04:38;3.6;;;2.7;;
51491;SDS011;37569;50.548;8.778;2023-05-07T00:09:38;3.3;;;2.7;;
51491;SDS011;37569;50.548;8.778;2023-05-07T00:14:39;3.9;;;2.9;;
51491;SDS011;37569;50.548;8.778;2023-05-07T00:19:39;4.1;;;3;;
51491;SDS011;37569;50.548;8.778;2023-05-07T00:24:40;5.5;;;2.8;;
51491;SDS011;37569;50.548;8.778;2023-05-07T00:29:41;4.4;;;2.9;;
51491;SDS011;37569;50.548;8.778;2023-05-07T00:34:42;3.7;;;2.7;;
51491;SDS011;37569;50.548;8.778;2023-05-07T00:39:42;4.6;;;2.8;;
51491;SDS011;37569;50.548;8.778;2023-05-07T00:44:43;3.8;;;3.4;;
51491;SDS011;37569;50.548;8.778;2023-05-07T00:49:44;3.2;;;2.8;;
51491;SDS011;37569;50.548;8.778;2023-05-07T00:54:44;5.3;;;3;;
51491;SDS011;37569;50.548;8.778;2023-05-07T00:59:44;3.7;;;3;;
51491;SDS011;37569;50.548;8.778;2023-05-07T01:04:45;3.6;;;2.8;;
51491;SDS011;37569;50.548;8.778;2023-05-07T01:09:46;3.5;;;3;;
51491;SDS011;37569;50.548;8.778;2023-05-07T01:14:46;3.4;;;2.9;;
51491;SDS011;37569;50.548;8.778;2023-05-07T01:19:47;4.9;;;3;;
51491;SDS011;37569;50.548;8.778;2023-05-07T01:24:48;3.8;;;2.9;;
51491;SDS011;37569;50.548;8.778;2023-05-07T01:29:48;4.6;;;2.8;;
51491;SDS011;37569;50.548;8.778;2023-05-07T01:34:49;3;;;2.4;;
51491;SDS011;37569;50.548;8.778;2023-05-07T01:39:49;4.3;;;3;;
51491;SDS011;37569;50.548;8.778;2023-05-07T01:44:50;3.4;;;2.8;;
51491;SDS011;37569;50.548;8.778;2023-05-07T01:49:50;4.6;;;3.2;;
51491;SDS011;37569;50.548;8.778;2023-05-07T01:54:51;4.7;;;3.5;;
51491;SDS011;37569;50.548;8.778;2023-05-07T01:59:52;4.1;;;3.2;;
51491;SDS011;37569;50.548;8.778;2023-05-07T02:04:52;4;;;3.6;;
51491;SDS011;37569;50.548;8.778;2023-05-07T02:09:53;4.2;;;3.8;;
51491;SDS011;37569;50.548;8.778;2023-05-07T02:14:54;4.6;;;3.7;;
51491;SDS011;37569;50.548;8.778;2023-05-07T02:19:54;4;;;3.5;;
51491;SDS011;37569;50.548;8.778;2023-05-07T02:24:55;4.2;;;3.4;;
51491;SDS011;37569;50.548;8.778;2023-05-07T02:29:55;4.5;;;3.9;;
51491;SDS011;37569;50.548;8.778;2023-05-07T02:34:56;4.4;;;3.6;;
51491;SDS011;37569;50.548;8.778;2023-05-07T02:39:57;4.1;;;3.4;;
51491;SDS011;37569;50.548;8.778;2023-05-07T02:44:57;5.7;;;4;;
51491;SDS011;37569;50.548;8.778;2023-05-07T02:49:58;5;;;4;;
51491;SDS011;37569;50.548;8.778;2023-05-07T02:54:59;4.6;;;4;;
51491;SDS011;37569;50.548;8.778;2023-05-07T02:59:59;5.7;;;4.2;;
51491;SDS011;37569;50.548;8.778;2023-05-07T03:05:00;4.9;;;4.1;;
51491;SDS011;37569;50.548;8.778;2023-05-07T03:10:00;4.4;;;3.9;;
51491;SDS011;37569;50.548;8.778;2023-05-07T03:15:01;5;;;4.2;;
51491;SDS011;37569;50.548;8.778;2023-05-07T03:20:02;5.1;;;4.4;;
51491;SDS011;37569;50.548;8.778;2023-05-07T03:25:02;6.1;;;4.7;;
51491;SDS011;37569;50.548;8.778;2023-05-07T03:30:03;4.7;;;4.2;;
51491;SDS011;37569;50.548;8.778;2023-05-07T03:35:04;5.6;;;4.2;;
51491;SDS011;37569;50.548;8.778;2023-05-07T03:40:04;4.9;;;4.4;;
51491;SDS011;37569;50.548;8.778;2023-05-07T03:45:05;5.9;;;4.8;;
51491;SDS011;37569;50.548;8.778;2023-05-07T03:50:05;5.1;;;4.6;;
51491;SDS011;37569;50.548;8.778;2023-05-07T03:55:06;5.7;;;4.9;;
51491;SDS011;37569;50.548;8.778;2023-05-07T04:00:06;5.7;;;5;;
51491;SDS011;37569;50.548;8.778;2023-05-07T04:05:07;5.7;;;5.1;;
51491;SDS011;37569;50.548;8.778;2023-05-07T04:10:08;6.6;;;5.7;;
51491;SDS011;37569;50.548;8.778;2023-05-07T04:15:08;6.9;;;6;;
51491;SDS011;37569;50.548;8.778;2023-05-07T04:20:09;7;;;6.3;;
51491;SDS011;37569;50.548;8.778;2023-05-07T04:25:09;7.4;;;6.6;;
51491;SDS011;37569;50.548;8.778;2023-05-07T04:30:10;7.7;;;6.9;;
51491;SDS011;37569;50.548;8.778;2023-05-07T04:35:10;9.2;;;7.6;;
51491;SDS011;37569;50.548;8.778;2023-05-07T04:40:11;9.5;;;8.5;;
51491;SDS011;37569;50.548;8.778;2023-05-07T04:45:11;8.5;;;7.5;;
51491;SDS011;37569;50.548;8.778;2023-05-07T04:50:12;14.3;;;9.4;;
51491;SDS011;37569;50.548;8.778;2023-05-07T04:55:13;10.9;;;9.8;;
51491;SDS011;37569;50.548;8.778;2023-05-07T05:00:13;11.3;;;10.2;;
51491;SDS011;37569;50.548;8.778;2023-05-07T05:05:14;12.5;;;11.2;;
51491;SDS011;37569;50.548;8.778;2023-05-07T05:10:14;13.5;;;12;;
51491;SDS011;37569;50.548;8.778;2023-05-07T05:15:15;13.9;;;12.5;;
51491;SDS011;37569;50.548;8.778;2023-05-07T05:20:15;15.1;;;13.3;;
51491;SDS011;37569;50.548;8.778;2023-05-07T05:25:16;15.8;;;14;;
51491;SDS011;37569;50.548;8.778;2023-05-07T05:30:16;15.7;;;14.1;;
51491;SDS011;37569;50.548;8.778;2023-05-07T05:35:17;17.3;;;14.8;;
51491;SDS011;37569;50.548;8.778;2023-05-07T05:40:18;16.9;;;14.6;;
51491;SDS011;37569;50.548;8.778;2023-05-07T05:45:18;17.3;;;15.4;;
51491;SDS011;37569;50.548;8.778;2023-05-07T05:50:19;16.6;;;14.9;;
51491;SDS011;37569;50.548;8.778;2023-05-07T05:55:19;16.8;;;15.1;;
51491;SDS011;37569;50.548;8.778;2023-05-07T06:00:20;17.1;;;15.4;;
51491;SDS011;37569;50.548;8.778;2023-05-07T06:05:20;18.6;;;16.5;;
51491;SDS011;37569;50.548;8.778;2023-05-07T06:10:21;18.9;;;16.9;;
51491;SDS011;37569;50.548;8.778;2023-05-07T06:15:21;18.5;;;16.6;;
51491;SDS011;37569;50.548;8.778;2023-05-07T06:20:22;17.9;;;16;;
51491;SDS011;37569;50.548;8.778;2023-05-07T06:25:23;18.2;;;16.3;;
51491;SDS011;37569;50.548;8.778;2023-05-07T06:30:23;17.2;;;15.5;;
51491;SDS011;37569;50.548;8.778;2023-05-07T06:35:24;18.3;;;15;;
51491;SDS011;37569;50.548;8.778;2023-05-07T06:40:24;18;;;15.5;;
51491;SDS011;37569;50.548;8.778;2023-05-07T06:45:25;17;;;15.2;;
51491;SDS011;37569;50.548;8.778;2023-05-07T06:50:26;16.8;;;15;;
51491;SDS011;37569;50.548;8.778;2023-05-07T06:55:26;16.7;;;15;;
51491;SDS011;37569;50.548;8.778;2023-05-07T07:00:27;17.9;;;16;;
51491;SDS011;37569;50.548;8.778;2023-05-07T07:05:28;17.6;;;15.7;;
51491;SDS011;37569;50.548;8.778;2023-05-07T07:10:28;18.2;;;16.3;;
51491;SDS011;37569;50.548;8.778;2023-05-07T07:15:29;19.2;;;15.5;;
51491;SDS011;37569;50.548;8.778;2023-05-07T07:20:30;18.6;;;15.6;;
51491;SDS011;37569;50.548;8.778;2023-05-07T07:25:30;19.5;;;16.3;;
51491;SDS011;37569;50.548;8.778;2023-05-07T07:30:31;17.1;;;15.3;;
51491;SDS011;37569;50.548;8.778;2023-05-07T07:35:32;18.7;;;16.8;;
51491;SDS011;37569;50.548;8.778;2023-05-07T07:40:34;16.3;;;14.6;;
51491;SDS011;37569;50.548;8.778;2023-05-07T07:45:33;16.3;;;13.9;;
51491;SDS011;37569;50.548;8.778;2023-05-07T07:50:34;16.9;;;15.1;;
51491;SDS011;37569;50.548;8.778;2023-05-07T07:55:37;15.2;;;13.6;;
51491;SDS011;37569;50.548;8.778;2023-05-07T08:00:35;16.6;;;13.8;;
51491;SDS011;37569;50.548;8.778;2023-05-07T08:05:36;15.6;;;14;;
51491;SDS011;37569;50.548;8.778;2023-05-07T08:10:36;15.1;;;13.5;;
51491;SDS011;37569;50.548;8.778;2023-05-07T08:15:37;15.1;;;13.6;;
51491;SDS011;37569;50.548;8.778;2023-05-07T08:20:38;15;;;13.3;;
51491;SDS011;37569;50.548;8.778;2023-05-07T08:25:39;14.7;;;13.2;;
51491;SDS011;37569;50.548;8.778;2023-05-07T08:30:40;15.8;;;13.8;;
51491;SDS011;37569;50.548;8.778;2023-05-07T08:35:40;15.2;;;13.5;;
51491;SDS011;37569;50.548;8.778;2023-05-07T08:40:41;14.9;;;12.8;;
51491;SDS011;37569;50.548;8.778;2023-05-07T08:45:42;13.8;;;12.4;;
51491;SDS011;37569;50.548;8.778;2023-05-07T08:50:42;14.3;;;12;;
51491;SDS011;37569;50.548;8.778;2023-05-07T08:55:43;15.3;;;12.8;;
51491;SDS011;37569;50.548;8.778;2023-05-07T09:00:44;13.5;;;11.6;;
51491;SDS011;37569;50.548;8.778;2023-05-07T09:05:44;14.2;;;11.7;;
51491;SDS011;37569;50.548;8.778;2023-05-07T09:10:45;13.3;;;11.9;;
51491;SDS011;37569;50.548;8.778;2023-05-07T09:15:46;12.4;;;11.1;;
51491;SDS011;37569;50.548;8.778;2023-05-07T09:20:47;11.6;;;10.4;;
51491;SDS011;37569;50.548;8.778;2023-05-07T09:25:47;12;;;10.8;;
51491;SDS011;37569;50.548;8.778;2023-05-07T09:30:48;11.2;;;10;;
51491;SDS011;37569;50.548;8.778;2023-05-07T09:35:50;12.2;;;11;;
51491;SDS011;37569;50.548;8.778;2023-05-07T09:40:54;11.7;;;10.5;;
51491;SDS011;37569;50.548;8.778;2023-05-07T09:45:51;10.8;;;9.7;;
51491;SDS011;37569;50.548;8.778;2023-05-07T09:50:52;11.6;;;10.4;;
51491;SDS011;37569;50.548;8.778;2023-05-07T09:55:52;13.9;;;11;;
51491;SDS011;37569;50.548;8.778;2023-05-07T10:00:54;11;;;9.9;;
51491;SDS011;37569;50.548;8.778;2023-05-07T10:05:54;11.3;;;9.8;;
51491;SDS011;37569;50.548;8.778;2023-05-07T10:10:55;10.3;;;9.4;;
51491;SDS011;37569;50.548;8.778;2023-05-07T10:15:56;12.3;;;10.1;;
51491;SDS011;37569;50.548;8.778;2023-05-07T10:20:58;11.6;;;10.4;;
51491;SDS011;37569;50.548;8.778;2023-05-07T10:25:58;10.3;;;9.3;;
51491;SDS011;37569;50.548;8.778;2023-05-07T10:31:02;9.4;;;8.5;;
51491;SDS011;37569;50.548;8.778;2023-05-07T10:36:00;10.1;;;9.2;;
51491;SDS011;37569;50.548;8.778;2023-05-07T10:41:00;10;;;9;;
51491;SDS011;37569;50.548;8.778;2023-05-07T10:46:09;10;;;9;;
51491;SDS011;37569;50.548;8.778;2023-05-07T10:51:17;9.5;;;8.2;;
51491;SDS011;37569;50.548;8.778;2023-05-07T10:56:35;9.4;;;8.4;;
51491;SDS011;37569;50.548;8.778;2023-05-07T11:01:04;9.4;;;8.5;;
51491;SDS011;37569;50.548;8.778;2023-05-07T11:06:08;9.7;;;8.8;;
51491;SDS011;37569;50.548;8.778;2023-05-07T11:11:06;8.6;;;7.7;;
51491;SDS011;37569;50.548;8.778;2023-05-07T11:16:15;9.6;;;8.7;;
51491;SDS011;37569;50.548;8.778;2023-05-07T11:21:08;9.1;;;8.1;;
51491;SDS011;37569;50.548;8.778;2023-05-07T11:26:09;10.1;;;8.6;;
51491;SDS011;37569;50.548;8.778;2023-05-07T11:31:09;9;;;8.1;;
51491;SDS011;37569;50.548;8.778;2023-05-07T11:36:10;8.5;;;7.6;;
51491;SDS011;37569;50.548;8.778;2023-05-07T11:41:11;8.9;;;8.1;;
51491;SDS011;37569;50.548;8.778;2023-05-07T11:46:12;8.9;;;7.7;;
51491;SDS011;37569;50.548;8.778;2023-05-07T11:51:13;8.4;;;7.6;;
51491;SDS011;37569;50.548;8.778;2023-05-07T11:56:15;8.3;;;7.5;;
51491;SDS011;37569;50.548;8.778;2023-05-07T12:01:15;8.5;;;7.6;;
51491;SDS011;37569;50.548;8.778;2023-05-07T12:06:16;8.4;;;7.5;;
51491;SDS011;37569;50.548;8.778;2023-05-07T12:11:21;9;;;8.1;;
51491;SDS011;37569;50.548;8.778;2023-05-07T12:16:17;8.6;;;7.7;;
51491;SDS011;37569;50.548;8.778;2023-05-07T12:21:18;8.1;;;7.2;;
51491;SDS011;37569;50.548;8.778;2023-05-07T12:26:19;10;;;8.4;;
51491;SDS011;37569;50.548;8.778;2023-05-07T12:31:20;10.6;;;7.5;;
51491;SDS011;37569;50.548;8.778;2023-05-07T12:36:21;9.1;;;8.1;;
51491;SDS011;37569;50.548;8.778;2023-05-07T12:41:22;8.4;;;7.6;;
51491;SDS011;37569;50.548;8.778;2023-05-07T12:46:23;7.6;;;6.9;;
51491;SDS011;37569;50.548;8.778;2023-05-07T12:51:24;7.7;;;6.9;;
51491;SDS011;37569;50.548;8.778;2023-05-07T12:56:25;6.8;;;6.1;;
51491;SDS011;37569;50.548;8.778;2023-05-07T13:01:28;7.3;;;6.6;;
51491;SDS011;37569;50.548;8.778;2023-05-07T13:06:27;7.6;;;6;;
51491;SDS011;37569;50.548;8.778;2023-05-07T13:11:28;6.1;;;5.5;;
51491;SDS011;37569;50.548;8.778;2023-05-07T13:16:29;5.8;;;5.3;;
51491;SDS011;37569;50.548;8.778;2023-05-07T13:21:30;6.2;;;4.9;;
51491;SDS011;37569;50.548;8.778;2023-05-07T13:26:31;4.4;;;4;;
51491;SDS011;37569;50.548;8.778;2023-05-07T13:31:32;5.2;;;4;;
51491;SDS011;37569;50.548;8.778;2023-05-07T13:36:33;4.5;;;4;;
51491;SDS011;37569;50.548;8.778;2023-05-07T13:41:34;4.6;;;4.2;;
51491;SDS011;37569;50.548;8.778;2023-05-07T13:46:35;5.7;;;4.4;;
51491;SDS011;37569;50.548;8.778;2023-05-07T13:51:36;4.8;;;4.3;;
51491;SDS011;37569;50.548;8.778;2023-05-07T13:56:36;5.6;;;5.1;;
51491;SDS011;37569;50.548;8.778;2023-05-07T14:01:37;6.1;;;4.6;;
51491;SDS011;37569;50.548;8.778;2023-05-07T14:06:38;5.3;;;4.8;;
51491;SDS011;37569;50.548;8.778;2023-05-07T14:11:39;5.3;;;4.8;;
51491;SDS011;37569;50.548;8.778;2023-05-07T14:16:40;6;;;4.5;;
51491;SDS011;37569;50.548;8.778;2023-05-07T14:21:41;4.9;;;4.4;;
51491;SDS011;37569;50.548;8.778;2023-05-07T14:26:42;4.6;;;4;;
51491;SDS011;37569;50.548;8.778;2023-05-07T14:31:43;4.4;;;4;;
51491;SDS011;37569;50.548;8.778;2023-05-07T14:36:44;5.2;;;4.7;;
51491;SDS011;37569;50.548;8.778;2023-05-07T14:41:45;6.2;;;4.9;;
51491;SDS011;37569;50.548;8.778;2023-05-07T14:46:46;5.6;;;5.1;;
51491;SDS011;37569;50.548;8.778;2023-05-07T14:51:47;6.1;;;5.5;;
51491;SDS011;37569;50.548;8.778;2023-05-07T14:56:48;6.3;;;5.2;;
51491;SDS011;37569;50.548;8.778;2023-05-07T15:01:48;5.1;;;4.6;;
51491;SDS011;37569;50.548;8.778;2023-05-07T15:06:49;5.6;;;5.1;;
51491;SDS011;37569;50.548;8.778;2023-05-07T15:11:50;6.2;;;5.6;;
51491;SDS011;37569;50.548;8.778;2023-05-07T15:16:51;6;;;5.4;;
51491;SDS011;37569;50.548;8.778;2023-05-07T15:21:52;6.9;;;6.3;;
51491;SDS011;37569;50.548;8.778;2023-05-07T15:26:53;7;;;6.3;;
51491;SDS011;37569;50.548;8.778;2023-05-07T15:31:54;7.2;;;5.9;;
51491;SDS011;37569;50.548;8.778;2023-05-07T15:36:55;6.4;;;5.8;;
51491;SDS011;37569;50.548;8.778;2023-05-07T15:41:56;6.8;;;6.1;;
51491;SDS011;37569;50.548;8.778;2023-05-07T15:46:56;6.4;;;5.8;;
51491;SDS011;37569;50.548;8.778;2023-05-07T15:51:57;6.6;;;6;;
51491;SDS011;37569;50.548;8.778;2023-05-07T15:56:58;6.9;;;6.2;;
51491;SDS011;37569;50.548;8.778;2023-05-07T16:01:59;8.1;;;6.8;;
51491;SDS011;37569;50.548;8.778;2023-05-07T16:07:00;6.7;;;6.1;;
51491;SDS011;37569;50.548;8.778;2023-05-07T16:12:01;6.4;;;5.8;;
51491;SDS011;37569;50.548;8.778;2023-05-07T16:17:02;7.2;;;6;;
51491;SDS011;37569;50.548;8.778;2023-05-07T16:22:03;6.7;;;5.8;;
51491;SDS011;37569;50.548;8.778;2023-05-07T16:27:03;7;;;6.3;;
51491;SDS011;37569;50.548;8.778;2023-05-07T16:32:04;6.5;;;5.9;;
51491;SDS011;37569;50.548;8.778;2023-05-07T16:37:05;6.9;;;6.2;;
51491;SDS011;37569;50.548;8.778;2023-05-07T16:42:06;6.5;;;5.9;;
51491;SDS011;37569;50.548;8.778;2023-05-07T16:47:07;8;;;6.2;;
51491;SDS011;37569;50.548;8.778;2023-05-07T16:52:08;7.1;;;6;;
51491;SDS011;37569;50.548;8.778;2023-05-07T16:57:08;8.2;;;6.7;;
51491;SDS011;37569;50.548;8.778;2023-05-07T17:02:09;8.7;;;6.2;;
51491;SDS011;37569;50.548;8.778;2023-05-07T17:07:10;7.3;;;6.2;;
51491;SDS011;37569;50.548;8.778;2023-05-07T17:12:11;6.7;;;6.1;;
51491;SDS011;37569;50.548;8.778;2023-05-07T17:17:12;7.3;;;6.2;;
51491;SDS011;37569;50.548;8.778;2023-05-07T17:22:12;6.7;;;6;;
51491;SDS011;37569;50.548;8.778;2023-05-07T17:27:13;7;;;6.3;;
51491;SDS011;37569;50.548;8.778;2023-05-07T17:32:14;6.9;;;6.3;;
51491;SDS011;37569;50.548;8.778;2023-05-07T17:37:15;7.6;;;6.5;;
51491;SDS011;37569;50.548;8.778;2023-05-07T17:42:16;7.9;;;7;;
51491;SDS011;37569;50.548;8.778;2023-05-07T17:47:16;7.3;;;6.6;;
51491;SDS011;37569;50.548;8.778;2023-05-07T17:52:17;7.9;;;7.1;;
51491;SDS011;37569;50.548;8.778;2023-05-07T17:57:18;7.4;;;6.7;;
51491;SDS011;37569;50.548;8.778;2023-05-07T18:02:19;7.5;;;6.8;;
51491;SDS011;37569;50.548;8.778;2023-05-07T18:07:19;8.2;;;7.1;;
51491;SDS011;37569;50.548;8.778;2023-05-07T18:12:20;8.2;;;7.4;;
51491;SDS011;37569;50.548;8.778;2023-05-07T18:17:21;8.2;;;7.4;;
51491;SDS011;37569;50.548;8.778;2023-05-07T18:22:21;8.7;;;7.8;;
51491;SDS011;37569;50.548;8.778;2023-05-07T18:27:22;8.2;;;7.4;;
51491;SDS011;37569;50.548;8.778;2023-05-07T18:32:23;8.4;;;7.3;;
51491;SDS011;37569;50.548;8.778;2023-05-07T18:37:23;8.2;;;7.4;;
51491;SDS011;37569;50.548;8.778;2023-05-07T18:42:24;8.1;;;7.4;;
51491;SDS011;37569;50.548;8.778;2023-05-07T18:47:25;8.7;;;7.8;;
51491;SDS011;37569;50.548;8.778;2023-05-07T18:52:25;8.4;;;7.5;;
51491;SDS011;37569;50.548;8.778;2023-05-07T18:57:26;8.8;;;7.5;;
51491;SDS011;37569;50.548;8.778;2023-05-07T19:02:27;8.2;;;7.4;;
51491;SDS011;37569;50.548;8.778;2023-05-07T19:07:27;12.6;;;9.8;;
51491;SDS011;37569;50.548;8.778;2023-05-07T19:12:28;9.3;;;8.2;;
51491;SDS011;37569;50.548;8.778;2023-05-07T19:17:29;8.6;;;7.7;;
51491;SDS011;37569;50.548;8.778;2023-05-07T19:22:29;8.9;;;7.6;;
51491;SDS011;37569;50.548;8.778;2023-05-07T19:27:30;8;;;7.2;;
51491;SDS011;37569;50.548;8.778;2023-05-07T19:32:31;8.8;;;7.9;;
51491;SDS011;37569;50.548;8.778;2023-05-07T19:37:32;9.5;;;8.2;;
51491;SDS011;37569;50.548;8.778;2023-05-07T19:42:32;8.8;;;7.9;;
51491;SDS011;37569;50.548;8.778;2023-05-07T19:47:33;9.8;;;8.1;;
51491;SDS011;37569;50.548;8.778;2023-05-07T19:52:33;9.4;;;7.9;;
51491;SDS011;37569;50.548;8.778;2023-05-07T19:57:34;7.9;;;7.2;;
51491;SDS011;37569;50.548;8.778;2023-05-07T20:02:35;9;;;8.1;;
51491;SDS011;37569;50.548;8.778;2023-05-07T20:07:35;8.4;;;7.6;;
51491;SDS011;37569;50.548;8.778;2023-05-07T20:12:36;9.1;;;8.2;;
51491;SDS011;37569;50.548;8.778;2023-05-07T20:17:36;9;;;8.2;;
51491;SDS011;37569;50.548;8.778;2023-05-07T20:22:37;8.5;;;7.6;;
51491;SDS011;37569;50.548;8.778;2023-05-07T20:27:38;8.9;;;8;;
51491;SDS011;37569;50.548;8.778;2023-05-07T20:32:38;8.5;;;7.6;;
51491;SDS011;37569;50.548;8.778;2023-05-07T20:37:39;8.5;;;7.7;;
51491;SDS011;37569;50.548;8.778;2023-05-07T20:42:40;8.5;;;7.6;;
51491;SDS011;37569;50.548;8.778;2023-05-07T20:47:40;8.7;;;7.9;;
51491;SDS011;37569;50.548;8.778;2023-05-07T20:52:41;8.9;;;8.1;;
51491;SDS011;37569;50.548;8.778;2023-05-07T20:57:41;8.3;;;7.4;;
51491;SDS011;37569;50.548;8.778;2023-05-07T21:02:42;8.4;;;7.6;;
51491;SDS011;37569;50.548;8.778;2023-05-07T21:07:42;9.2;;;8.3;;
51491;SDS011;37569;50.548;8.778;2023-05-07T21:12:43;8.9;;;8;;
51491;SDS011;37569;50.548;8.778;2023-05-07T21:17:43;8.5;;;7.7;;
51491;SDS011;37569;50.548;8.778;2023-05-07T21:22:44;8.8;;;7.7;;
51491;SDS011;37569;50.548;8.778;2023-05-07T21:27:44;8.9;;;8;;
51491;SDS011;37569;50.548;8.778;2023-05-07T21:32:45;9.1;;;8.1;;
51491;SDS011;37569;50.548;8.778;2023-05-07T21:37:45;9.1;;;8.2;;
51491;SDS011;37569;50.548;8.778;2023-05-07T21:42:46;9.8;;;8.9;;
51491;SDS011;37569;50.548;8.778;2023-05-07T21:47:47;8.9;;;8;;
51491;SDS011;37569;50.548;8.778;2023-05-07T21:52:47;9.4;;;8.5;;
51491;SDS011;37569;50.548;8.778;2023-05-07T21:57:48;9.5;;;8.6;;
51491;SDS011;37569;50.548;8.778;2023-05-07T22:02:48;9;;;8.1;;
51491;SDS011;37569;50.548;8.778;2023-05-07T22:07:49;8.9;;;8;;
51491;SDS011;37569;50.548;8.778;2023-05-07T22:12:49;9.4;;;8.5;;
51491;SDS011;37569;50.548;8.778;2023-05-07T22:17:50;9.3;;;8.3;;
51491;SDS011;37569;50.548;8.778;2023-05-07T22:22:51;9.3;;;8.3;;
51491;SDS011;37569;50.548;8.778;2023-05-07T22:27:51;9.3;;;8.3;;
51491;SDS011;37569;50.548;8.778;2023-05-07T22:32:51;9.4;;;8.4;;
51491;SDS011;37569;50.548;8.778;2023-05-07T22:37:51;8.4;;;7.7;;
51491;SDS011;37569;50.548;8.778;2023-05-07T22:42:52;8.7;;;7.9;;
51491;SDS011;37569;50.548;8.778;2023-05-07T22:47:52;9;;;8.2;;
51491;SDS011;37569;50.548;8.778;2023-05-07T22:52:53;8.9;;;8;;
51491;SDS011;37569;50.548;8.778;2023-05-07T22:57:53;9.2;;;8.4;;
51491;SDS011;37569;50.548;8.778;2023-05-07T23:02:54;8.7;;;7.9;;
51491;SDS011;37569;50.548;8.778;2023-05-07T23:07:54;8.8;;;7.9;;
51491;SDS011;37569;50.548;8.778;2023-05-07T23:12:55;9.1;;;8.3;;
51491;SDS011;37569;50.548;8.778;2023-05-07T23:17:55;8.8;;;8;;
51491;SDS011;37569;50.548;8.778;2023-05-07T23:22:56;9.6;;;8.6;;
51491;SDS011;37569;50.548;8.778;2023-05-07T23:27:56;9.2;;;8.2;;
51491;SDS011;37569;50.548;8.778;2023-05-07T23:32:57;9.5;;;8.6;;
51491;SDS011;37569;50.548;8.778;2023-05-07T23:37:57;9.2;;;8.3;;
51491;SDS011;37569;50.548;8.778;2023-05-07T23:42:58;9.9;;;8.9;;
51491;SDS011;37569;50.548;8.778;2023-05-07T23:47:58;9.4;;;8.5;;
51491;SDS011;37569;50.548;8.778;2023-05-07T23:52:59;9.7;;;8.8;;
51491;SDS011;37569;50.548;8.778;2023-05-07T23:57:59;10;;;8.9;;
